createdAt,value
2018-07-08T00:02:01.150Z,77.58
2018-07-08T00:04:30.629Z,78.94
2018-07-08T00:07:00.072Z,79.60
2018-07-08T00:09:29.594Z,79.60
2018-07-08T00:11:59.079Z,79.78
2018-07-08T00:14:28.488Z,78.97
2018-07-08T00:16:57.942Z,78.91
2018-07-08T00:19:27.410Z,79.91
2018-07-08T00:21:56.867Z,79.75
2018-07-08T00:24:26.265Z,79.32
2018-07-08T00:26:55.749Z,79.77
2018-07-08T00:29:25.222Z,79.58
2018-07-08T00:31:54.616Z,79.39
2018-07-08T00:34:24.132Z,80.68
2018-07-08T00:36:53.577Z,80.73
2018-07-08T00:39:23.089Z,81.56
2018-07-08T00:41:52.537Z,81.51
2018-07-08T00:44:22.034Z,80.64
2018-07-08T00:46:51.432Z,81.35
2018-07-08T00:49:20.880Z,81.36
2018-07-08T00:51:50.315Z,82.19
2018-07-08T00:54:19.756Z,81.44
2018-07-08T00:56:49.194Z,81.14
2018-07-08T00:59:18.652Z,81.12
2018-07-08T01:01:48.167Z,81.68
2018-07-08T01:04:17.533Z,81.67
2018-07-08T01:06:47.060Z,81.57
2018-07-08T01:09:16.723Z,81.82
2018-07-08T01:11:46.146Z,81.98
2018-07-08T01:14:15.605Z,82.72
2018-07-08T01:16:45.034Z,83.52
2018-07-08T01:19:14.438Z,83.51
2018-07-08T01:21:44.023Z,82.86
2018-07-08T01:24:13.451Z,82.67
2018-07-08T01:26:43.233Z,82.83
2018-07-08T01:29:12.652Z,83.02
2018-07-08T01:31:42.059Z,82.68
2018-07-08T01:34:11.493Z,82.97
2018-07-08T01:36:40.965Z,82.98
2018-07-08T01:39:10.442Z,83.00
2018-07-08T01:41:39.903Z,83.08
2018-07-08T01:44:09.410Z,83.66
2018-07-08T01:46:38.843Z,82.77
2018-07-08T01:49:08.327Z,83.03
2018-07-08T01:51:37.775Z,83.34
2018-07-08T01:54:07.213Z,83.27
2018-07-08T01:56:36.734Z,83.19
2018-07-08T01:59:06.242Z,84.29
2018-07-08T02:01:35.743Z,84.77
2018-07-08T02:04:05.174Z,84.29
2018-07-08T02:06:34.626Z,85.25
2018-07-08T02:09:04.241Z,85.54
2018-07-08T02:11:33.718Z,85.77
2018-07-08T02:14:03.219Z,85.05
2018-07-08T02:16:32.656Z,85.18
2018-07-08T02:19:02.139Z,84.69
2018-07-08T02:21:31.535Z,84.99
2018-07-08T02:24:01.047Z,85.03
2018-07-08T02:26:30.573Z,85.83
2018-07-08T02:29:00.060Z,86.24
2018-07-08T02:31:29.491Z,84.86
2018-07-08T02:33:58.899Z,85.01
2018-07-08T02:36:28.533Z,84.30
2018-07-08T02:38:58.179Z,84.76
2018-07-08T02:41:27.619Z,84.89
2018-07-08T02:43:57.028Z,84.72
2018-07-08T02:46:26.484Z,85.60
2018-07-08T02:48:55.918Z,85.76
2018-07-08T02:51:25.355Z,86.01
2018-07-08T02:53:54.755Z,86.51
2018-07-08T02:56:24.188Z,86.30
2018-07-08T02:58:53.602Z,85.27
2018-07-08T03:01:23.645Z,85.85
2018-07-08T03:03:54.065Z,85.25
2018-07-08T03:06:23.511Z,85.59
2018-07-08T03:08:52.889Z,85.83
2018-07-08T03:11:22.254Z,85.67
2018-07-08T03:13:52.051Z,84.92
2018-07-08T03:16:21.432Z,85.20
2018-07-08T03:18:50.959Z,85.48
2018-07-08T03:21:20.401Z,85.71
2018-07-08T03:23:49.845Z,86.43
2018-07-08T03:26:19.250Z,86.00
2018-07-08T03:28:48.641Z,86.23
2018-07-08T03:31:18.132Z,86.51
2018-07-08T03:33:47.587Z,85.95
2018-07-08T03:36:17.093Z,86.55
2018-07-08T03:38:46.637Z,86.78
2018-07-08T03:41:16.085Z,86.90
2018-07-08T03:43:45.536Z,87.69
2018-07-08T03:46:14.981Z,88.24
2018-07-08T03:48:44.478Z,87.95
2018-07-08T03:51:13.906Z,87.38
2018-07-08T03:53:43.389Z,87.10
2018-07-08T03:56:12.828Z,87.59
2018-07-08T03:58:42.245Z,87.50
2018-07-08T04:01:11.729Z,87.82
2018-07-08T04:03:41.161Z,87.43
2018-07-08T04:06:10.574Z,87.96
2018-07-08T04:08:39.958Z,87.80
2018-07-08T04:11:09.548Z,87.14
2018-07-08T04:13:39.097Z,87.62
2018-07-08T04:16:09.807Z,87.84
2018-07-08T04:18:39.248Z,87.06
2018-07-08T04:21:08.633Z,87.35
2018-07-08T04:23:38.085Z,87.12
2018-07-08T04:26:07.493Z,87.66
2018-07-08T04:28:36.912Z,87.68
2018-07-08T04:31:06.498Z,87.97
2018-07-08T04:33:35.916Z,87.82
2018-07-08T04:36:05.367Z,87.85
2018-07-08T04:38:34.809Z,87.06
2018-07-08T04:41:04.249Z,87.15
2018-07-08T04:43:33.627Z,86.93
2018-07-08T04:46:03.040Z,86.86
2018-07-08T04:48:32.479Z,87.62
2018-07-08T04:51:01.866Z,86.99
2018-07-08T04:53:31.300Z,86.96
2018-07-08T04:56:00.665Z,86.48
2018-07-08T04:58:30.106Z,87.09
2018-07-08T05:00:59.544Z,87.51
2018-07-08T05:03:28.939Z,87.02
2018-07-08T05:05:58.383Z,87.50
2018-07-08T05:08:27.752Z,87.50
2018-07-08T05:10:57.256Z,86.40
2018-07-08T05:13:26.720Z,85.99
2018-07-08T05:15:56.122Z,85.59
2018-07-08T05:18:25.590Z,85.73
2018-07-08T05:20:55.035Z,85.54
2018-07-08T05:23:24.422Z,85.95
2018-07-08T05:25:53.848Z,85.65
2018-07-08T05:28:23.247Z,86.16
2018-07-08T05:30:52.650Z,85.77
2018-07-08T05:33:22.107Z,86.58
2018-07-08T05:35:51.534Z,86.19
2018-07-08T05:38:20.991Z,86.23
2018-07-08T05:40:50.503Z,85.65
2018-07-08T05:43:19.964Z,85.69
2018-07-08T05:45:49.534Z,85.83
2018-07-08T05:48:18.992Z,85.75
2018-07-08T05:50:50.459Z,86.02
2018-07-08T05:53:19.866Z,85.79
2018-07-08T05:55:49.270Z,86.12
2018-07-08T05:58:18.729Z,86.81
2018-07-08T06:00:48.171Z,86.48
2018-07-08T06:03:17.624Z,87.20
2018-07-08T06:05:48.785Z,86.55
2018-07-08T06:08:18.259Z,85.93
2018-07-08T06:10:47.762Z,85.92
2018-07-08T06:13:17.215Z,86.84
2018-07-08T06:15:46.651Z,86.58
2018-07-08T06:18:16.022Z,87.12
2018-07-08T06:20:45.536Z,87.47
2018-07-08T06:23:15.019Z,87.74
2018-07-08T06:25:44.478Z,87.46
2018-07-08T06:28:13.954Z,86.57
2018-07-08T06:30:43.370Z,83.72
2018-07-08T06:33:12.885Z,81.89
2018-07-08T06:35:42.280Z,84.02
2018-07-08T06:38:11.745Z,83.21
2018-07-08T06:40:41.206Z,82.90
2018-07-08T06:43:10.646Z,83.00
2018-07-08T06:45:41.642Z,82.01
2018-07-08T06:48:12.423Z,81.54
2018-07-08T06:50:42.454Z,79.92
2018-07-08T06:53:11.918Z,78.16
2018-07-08T06:55:41.357Z,77.69
2018-07-08T06:58:10.847Z,77.40
2018-07-08T07:00:40.283Z,77.46
2018-07-08T07:03:09.784Z,76.31
2018-07-08T07:05:39.320Z,76.88
2018-07-08T07:08:08.750Z,75.72
2018-07-08T07:10:38.245Z,76.87
2018-07-08T07:13:07.700Z,76.57
2018-07-08T07:15:37.128Z,77.20
2018-07-08T07:18:06.648Z,74.41
2018-07-08T07:20:36.166Z,74.30
2018-07-08T07:23:05.696Z,74.09
2018-07-08T07:25:35.296Z,75.74
2018-07-08T07:28:05.100Z,74.42
2018-07-08T07:30:36.684Z,72.94
2018-07-08T07:33:08.554Z,71.56
2018-07-08T07:35:41.257Z,70.02
2018-07-08T07:38:13.902Z,72.00
2018-07-08T07:40:47.762Z,70.56
2018-07-08T07:43:18.543Z,72.36
2018-07-08T07:45:48.451Z,67.12
2018-07-08T07:48:18.083Z,66.36
2018-07-08T07:50:48.751Z,66.56
2018-07-08T07:53:18.184Z,66.44
2018-07-08T07:55:47.636Z,66.84
2018-07-08T07:58:17.028Z,68.00
2018-07-08T08:00:46.504Z,66.44
2018-07-08T08:03:15.927Z,64.61
2018-07-08T08:05:45.344Z,63.14
2018-07-08T08:08:14.744Z,62.95
2018-07-08T08:10:44.228Z,61.13
2018-07-08T08:13:13.694Z,62.65
2018-07-08T08:15:43.157Z,63.05
2018-07-08T08:18:12.590Z,65.10
2018-07-08T08:20:42.030Z,65.59
2018-07-08T08:23:11.498Z,64.87
2018-07-08T08:25:40.935Z,65.15
2018-07-08T08:28:10.378Z,63.68
2018-07-08T08:30:39.836Z,64.26
2018-07-08T08:33:09.278Z,65.05
2018-07-08T08:35:38.695Z,65.64
2018-07-08T08:38:08.126Z,67.54
2018-07-08T08:40:37.535Z,64.06
2018-07-08T08:43:07.135Z,63.98
2018-07-08T08:45:36.583Z,63.56
2018-07-08T08:48:06.092Z,63.28
2018-07-08T08:50:35.554Z,61.93
2018-07-08T08:53:05.126Z,59.78
2018-07-08T08:55:34.559Z,56.53
2018-07-08T08:58:03.995Z,58.02
2018-07-08T09:00:33.392Z,56.20
2018-07-08T09:03:02.842Z,57.56
2018-07-08T09:05:32.287Z,57.02
2018-07-08T09:08:01.767Z,58.12
2018-07-08T09:10:31.112Z,58.02
2018-07-08T09:13:00.561Z,60.91
2018-07-08T09:15:29.960Z,58.96
2018-07-08T09:17:59.420Z,55.30
2018-07-08T09:20:28.939Z,56.54
2018-07-08T09:22:58.395Z,58.51
2018-07-08T09:25:27.758Z,55.69
2018-07-08T09:27:57.187Z,55.83
2018-07-08T09:30:26.573Z,51.50
2018-07-08T09:32:56.003Z,51.98
2018-07-08T09:35:25.395Z,52.42
2018-07-08T09:37:54.887Z,52.47
2018-07-08T09:40:24.305Z,51.34
2018-07-08T09:42:53.736Z,48.89
2018-07-08T09:45:23.188Z,49.25
2018-07-08T09:47:52.627Z,49.86
2018-07-08T09:50:22.065Z,49.72
2018-07-08T09:52:51.470Z,50.14
2018-07-08T09:55:20.897Z,50.67
2018-07-08T09:57:50.339Z,51.47
2018-07-08T10:00:19.748Z,54.42
2018-07-08T10:02:49.157Z,55.32
2018-07-08T10:05:18.574Z,51.38
2018-07-08T10:07:47.985Z,50.68
2018-07-08T10:10:17.454Z,51.19
2018-07-08T10:12:46.844Z,51.44
2018-07-08T10:15:16.295Z,53.90
2018-07-08T10:17:45.780Z,53.99
2018-07-08T10:20:15.216Z,50.46
2018-07-08T10:22:44.651Z,52.16
2018-07-08T10:25:14.118Z,50.59
2018-07-08T10:28:02.576Z,46.84
2018-07-08T10:30:31.991Z,47.72
2018-07-08T10:33:01.444Z,49.84
2018-07-08T10:35:47.547Z,50.34
2018-07-08T10:38:17.099Z,47.81
2018-07-08T10:40:46.882Z,49.24
2018-07-08T10:43:16.861Z,50.42
2018-07-08T10:45:46.648Z,50.29
2018-07-08T10:48:16.501Z,47.12
2018-07-08T10:50:46.036Z,47.23
2018-07-08T10:53:15.556Z,48.44
2018-07-08T10:55:45.070Z,47.40
2018-07-08T10:58:14.533Z,47.05
2018-07-08T11:00:43.981Z,49.17
2018-07-08T11:03:13.469Z,46.66
2018-07-08T11:05:42.860Z,49.73
2018-07-08T11:08:12.284Z,45.94
2018-07-08T11:10:41.828Z,45.10
2018-07-08T11:13:11.161Z,45.29
2018-07-08T11:15:40.793Z,46.24
2018-07-08T11:18:10.198Z,42.96
2018-07-08T11:20:39.799Z,43.10
2018-07-08T11:23:09.213Z,42.98
2018-07-08T11:25:38.662Z,42.19
2018-07-08T11:28:08.731Z,42.39
2018-07-08T11:30:38.182Z,42.76
2018-07-08T11:33:08.211Z,42.78
2018-07-08T11:35:37.672Z,42.82
2018-07-08T11:38:07.499Z,41.08
2018-07-08T11:40:36.933Z,39.62
2018-07-08T11:43:06.421Z,39.88
2018-07-08T11:45:35.920Z,40.19
2018-07-08T11:48:05.566Z,41.56
2018-07-08T11:50:35.148Z,39.81
2018-07-08T11:53:04.700Z,39.82
2018-07-08T11:55:34.169Z,37.08
2018-07-08T11:58:03.629Z,38.04
2018-07-08T12:00:33.136Z,37.04
2018-07-08T12:03:02.624Z,38.63
2018-07-08T12:05:32.075Z,37.56
2018-07-08T12:08:01.480Z,36.24
2018-07-08T12:10:30.926Z,36.03
2018-07-08T12:13:00.438Z,37.49
2018-07-08T12:15:29.841Z,39.47
2018-07-08T12:17:59.290Z,34.01
2018-07-08T12:20:28.695Z,33.79
2018-07-08T12:22:58.106Z,33.05
2018-07-08T12:25:27.559Z,37.76
2018-07-08T12:27:57.035Z,37.81
2018-07-08T12:30:26.455Z,35.87
2018-07-08T12:32:55.957Z,34.88
2018-07-08T12:35:25.468Z,34.45
2018-07-08T12:37:54.951Z,35.39
2018-07-08T12:40:24.376Z,34.94
2018-07-08T12:42:53.802Z,34.67
2018-07-08T12:45:23.154Z,35.89
2018-07-08T12:47:52.582Z,36.10
2018-07-08T12:50:22.039Z,38.92
2018-07-08T12:52:51.544Z,36.17
2018-07-08T12:55:21.026Z,35.12
2018-07-08T12:57:50.479Z,36.09
2018-07-08T13:00:19.893Z,35.15
2018-07-08T13:02:49.388Z,35.28
2018-07-08T13:05:18.834Z,36.02
2018-07-08T13:07:48.307Z,35.76
2018-07-08T13:10:17.729Z,34.82
2018-07-08T13:12:47.209Z,36.37
2018-07-08T13:15:16.628Z,33.60
2018-07-08T13:17:46.075Z,34.33
2018-07-08T13:20:15.473Z,35.47
2018-07-08T13:22:44.912Z,33.80
2018-07-08T13:25:14.332Z,34.17
2018-07-08T13:27:43.734Z,34.33
2018-07-08T13:30:13.180Z,34.20
2018-07-08T13:32:42.744Z,32.51
2018-07-08T13:35:12.162Z,34.55
2018-07-08T13:37:41.593Z,34.79
2018-07-08T13:40:11.017Z,34.74
2018-07-08T13:42:40.466Z,35.13
2018-07-08T13:45:10.001Z,36.10
2018-07-08T13:47:39.446Z,37.21
2018-07-08T13:50:08.948Z,37.00
2018-07-08T13:52:38.403Z,35.26
2018-07-08T13:55:07.886Z,35.46
2018-07-08T13:57:37.439Z,34.83
2018-07-08T14:00:07.531Z,36.73
2018-07-08T14:02:37.018Z,36.50
2018-07-08T14:05:06.534Z,35.78
2018-07-08T14:07:35.941Z,34.71
2018-07-08T14:10:05.444Z,35.49
2018-07-08T14:12:34.860Z,35.08
2018-07-08T14:15:04.309Z,35.65
2018-07-08T14:17:33.742Z,35.36
2018-07-08T14:20:03.244Z,34.46
2018-07-08T14:22:32.731Z,36.40
2018-07-08T14:25:02.312Z,35.35
2018-07-08T14:27:31.799Z,36.21
2018-07-08T14:30:01.192Z,34.65
2018-07-08T14:32:30.668Z,34.76
2018-07-08T14:35:00.244Z,34.52
2018-07-08T14:37:29.705Z,35.32
2018-07-08T14:39:59.208Z,35.24
2018-07-08T14:42:28.604Z,35.65
2018-07-08T14:44:58.213Z,35.44
2018-07-08T14:47:27.629Z,34.16
2018-07-08T14:49:57.153Z,36.00
2018-07-08T14:52:26.705Z,34.91
2018-07-08T14:54:56.170Z,33.92
2018-07-08T14:57:25.644Z,34.26
2018-07-08T14:59:55.171Z,33.59
2018-07-08T15:02:24.636Z,32.70
2018-07-08T15:04:54.149Z,34.95
2018-07-08T15:07:23.566Z,33.72
2018-07-08T15:09:53.215Z,36.06
2018-07-08T15:12:22.700Z,33.92
2018-07-08T15:14:52.106Z,33.16
2018-07-08T15:17:21.609Z,32.80
2018-07-08T15:19:51.112Z,33.80
2018-07-08T15:22:20.611Z,31.33
2018-07-08T15:24:50.036Z,31.38
2018-07-08T15:27:19.507Z,31.08
2018-07-08T15:29:49.038Z,31.58
2018-07-08T15:32:18.517Z,30.03
2018-07-08T15:34:47.963Z,30.23
2018-07-08T15:37:17.465Z,29.57
2018-07-08T15:39:46.935Z,30.10
2018-07-08T15:42:16.457Z,29.67
2018-07-08T15:44:45.895Z,28.58
2018-07-08T15:47:15.341Z,28.88
2018-07-08T15:49:44.905Z,28.88
2018-07-08T15:52:14.345Z,28.65
2018-07-08T15:54:43.761Z,29.17
2018-07-08T15:57:13.221Z,29.25
2018-07-08T15:59:42.639Z,28.55
2018-07-08T16:02:12.100Z,28.06
2018-07-08T16:04:41.624Z,28.70
2018-07-08T16:07:11.144Z,28.58
2018-07-08T16:09:40.543Z,29.51
2018-07-08T16:12:10.033Z,29.47
2018-07-08T16:14:39.468Z,29.86
2018-07-08T16:17:08.921Z,30.21
2018-07-08T16:19:38.347Z,29.46
2018-07-08T16:22:07.797Z,32.32
2018-07-08T16:24:37.215Z,29.47
2018-07-08T16:27:07.036Z,29.81
2018-07-08T16:29:36.525Z,31.39
2018-07-08T16:32:06.058Z,31.70
2018-07-08T16:34:36.398Z,31.21
2018-07-08T16:37:05.844Z,30.89
2018-07-08T16:39:35.297Z,29.37
2018-07-08T16:42:04.738Z,30.86
2018-07-08T16:44:34.446Z,30.00
2018-07-08T16:47:03.950Z,30.40
2018-07-08T16:49:33.350Z,29.93
2018-07-08T16:52:02.832Z,28.81
2018-07-08T16:54:32.399Z,29.21
2018-07-08T16:57:01.924Z,28.63
2018-07-08T16:59:31.465Z,27.95
2018-07-08T17:02:00.992Z,29.04
2018-07-08T17:04:30.422Z,30.30
2018-07-08T17:06:59.909Z,28.31
2018-07-08T17:09:29.421Z,29.10
2018-07-08T17:11:58.942Z,28.04
2018-07-08T17:14:28.361Z,27.65
2018-07-08T17:16:57.847Z,27.51
2018-07-08T17:19:27.305Z,30.70
2018-07-08T17:21:57.090Z,28.12
2018-07-08T17:24:26.530Z,27.52
2018-07-08T17:26:55.958Z,27.63
2018-07-08T17:29:25.512Z,27.81
2018-07-08T17:31:54.981Z,29.83
2018-07-08T17:34:24.458Z,27.58
2018-07-08T17:36:54.131Z,28.11
2018-07-08T17:39:23.589Z,29.92
2018-07-08T17:41:53.097Z,29.55
2018-07-08T17:44:22.605Z,28.66
2018-07-08T17:46:52.045Z,30.79
2018-07-08T17:49:21.654Z,29.07
2018-07-08T17:51:51.696Z,29.71
2018-07-08T17:54:22.458Z,28.80
2018-07-08T17:56:52.077Z,32.42
2018-07-08T17:59:21.661Z,33.23
2018-07-08T18:01:51.155Z,31.58
2018-07-08T18:04:20.636Z,33.62
2018-07-08T18:06:50.178Z,32.17
2018-07-08T18:09:19.895Z,31.36
2018-07-08T18:11:49.386Z,31.59
2018-07-08T18:14:18.892Z,31.67
2018-07-08T18:16:48.336Z,34.06
2018-07-08T18:19:17.750Z,35.43
2018-07-08T18:21:47.224Z,35.37
2018-07-08T18:24:16.966Z,36.63
2018-07-08T18:26:46.571Z,38.30
2018-07-08T18:29:16.065Z,38.29
2018-07-08T18:31:45.598Z,38.24
2018-07-08T18:34:15.097Z,38.62
2018-07-08T18:36:45.481Z,38.51
2018-07-08T18:39:14.998Z,39.00
2018-07-08T18:41:44.444Z,40.00
2018-07-08T18:44:13.854Z,39.63
2018-07-08T18:46:43.402Z,40.16
2018-07-08T18:49:12.874Z,40.39
2018-07-08T18:51:42.373Z,40.60
2018-07-08T18:54:11.852Z,40.52
2018-07-08T18:56:41.369Z,40.28
2018-07-08T18:59:10.878Z,39.89
2018-07-08T19:01:40.432Z,40.36
2018-07-08T19:04:09.850Z,41.03
2018-07-08T19:06:39.378Z,41.02
2018-07-08T19:09:08.855Z,42.60
2018-07-08T19:11:38.332Z,42.44
2018-07-08T19:14:08.317Z,42.29
2018-07-08T19:16:37.816Z,42.03
2018-07-08T19:19:07.548Z,42.63
2018-07-08T19:21:37.027Z,42.24
2018-07-08T19:24:06.623Z,43.04
2018-07-08T19:26:36.206Z,44.14
2018-07-08T19:29:05.685Z,45.51
2018-07-08T19:31:35.164Z,44.79
2018-07-08T19:34:04.592Z,45.76
2018-07-08T19:36:34.153Z,45.75
2018-07-08T19:39:03.995Z,45.00
2018-07-08T19:41:33.527Z,46.40
2018-07-08T19:44:03.004Z,46.47
2018-07-08T19:46:32.626Z,46.55
2018-07-08T19:49:02.120Z,46.98
2018-07-08T19:51:31.807Z,47.38
2018-07-08T19:54:02.109Z,47.49
2018-07-08T19:56:31.585Z,48.16
2018-07-08T19:59:01.259Z,47.96
2018-07-08T20:01:30.681Z,49.02
2018-07-08T20:04:00.162Z,49.51
2018-07-08T20:06:29.677Z,50.17
2018-07-08T20:08:59.161Z,50.96
2018-07-08T20:11:28.811Z,51.49
2018-07-08T20:13:59.131Z,51.45
2018-07-08T20:16:28.860Z,52.99
2018-07-08T20:18:58.341Z,53.55
2018-07-08T20:21:28.084Z,53.42
2018-07-08T20:23:57.398Z,53.03
2018-07-08T20:26:26.991Z,53.73
2018-07-08T20:28:56.573Z,54.03
2018-07-08T20:31:26.045Z,53.69
2018-07-08T20:33:55.516Z,54.36
2018-07-08T20:36:24.965Z,54.41
2018-07-08T20:38:54.417Z,54.40
2018-07-08T20:41:23.952Z,56.10
2018-07-08T20:43:54.006Z,56.25
2018-07-08T20:46:23.509Z,55.76
2018-07-08T20:48:53.031Z,56.54
2018-07-08T20:51:22.537Z,56.63
2018-07-08T20:53:52.037Z,58.63
2018-07-08T20:56:21.850Z,58.19
2018-07-08T20:58:51.378Z,57.79
2018-07-08T21:01:20.931Z,58.75
2018-07-08T21:03:50.642Z,59.84
2018-07-08T21:06:20.113Z,59.33
2018-07-08T21:08:49.587Z,59.42
2018-07-08T21:11:19.091Z,60.19
2018-07-08T21:13:48.527Z,59.98
2018-07-08T21:16:18.065Z,59.32
2018-07-08T21:18:47.622Z,60.04
2018-07-08T21:21:16.994Z,59.98
2018-07-08T21:23:46.499Z,61.38
2018-07-08T21:26:15.973Z,61.16
2018-07-08T21:28:45.389Z,61.92
2018-07-08T21:31:14.868Z,61.77
2018-07-08T21:33:44.854Z,61.52
2018-07-08T21:36:14.315Z,62.16
2018-07-08T21:38:44.191Z,62.90
2018-07-08T21:41:13.655Z,63.23
2018-07-08T21:43:43.155Z,63.40
2018-07-08T21:46:13.683Z,64.09
2018-07-08T21:48:43.303Z,64.19
2018-07-08T21:51:13.319Z,63.94
2018-07-08T21:53:42.849Z,64.09
2018-07-08T21:56:12.289Z,64.70
2018-07-08T21:58:41.709Z,64.85
2018-07-08T22:01:17.543Z,65.92
2018-07-08T22:03:47.698Z,65.58
2018-07-08T22:06:17.937Z,65.34
2018-07-08T22:08:47.428Z,66.14
2018-07-08T22:11:17.022Z,66.31
2018-07-08T22:13:46.538Z,66.87
2018-07-08T22:16:15.932Z,65.94
2018-07-08T22:18:45.414Z,67.04
2018-07-08T22:21:14.887Z,67.15
2018-07-08T22:23:44.394Z,67.15
2018-07-08T22:26:13.835Z,67.76
2018-07-08T22:28:43.335Z,67.33
2018-07-08T22:31:12.768Z,67.68
2018-07-08T22:33:42.226Z,69.04
2018-07-08T22:36:11.637Z,68.90
2018-07-08T22:38:41.144Z,68.73
2018-07-08T22:41:10.582Z,68.98
2018-07-08T22:43:39.987Z,68.63
2018-07-08T22:46:09.478Z,68.64
2018-07-08T22:48:38.930Z,69.00
2018-07-08T22:51:08.376Z,70.27
2018-07-08T22:53:37.850Z,70.39
2018-07-08T22:56:07.420Z,69.70
2018-07-08T22:58:37.512Z,69.73
2018-07-08T23:01:23.697Z,70.16
2018-07-08T23:03:58.828Z,70.85
2018-07-08T23:06:28.300Z,72.03
2018-07-08T23:08:58.048Z,71.00
2018-07-08T23:11:28.070Z,71.12
2018-07-08T23:13:58.159Z,71.29
2018-07-08T23:16:28.194Z,71.80
2018-07-08T23:18:57.707Z,71.55
2018-07-08T23:21:27.217Z,71.78
2018-07-08T23:23:56.704Z,72.17
2018-07-08T23:26:26.147Z,72.59
2018-07-08T23:28:55.585Z,73.87
2018-07-08T23:31:25.065Z,73.18
2018-07-08T23:33:54.490Z,72.91
2018-07-08T23:36:23.913Z,73.74
2018-07-08T23:38:53.388Z,73.73
2018-07-08T23:41:22.839Z,73.21
2018-07-08T23:43:52.299Z,73.89
2018-07-08T23:46:21.815Z,73.71
2018-07-08T23:48:51.322Z,74.09
2018-07-08T23:51:20.757Z,75.02
2018-07-08T23:53:50.197Z,74.65
2018-07-08T23:56:19.636Z,75.39
2018-07-08T23:58:49.136Z,76.04
